sensor_id;sensor_type;location;lat;lon;timestamp;P1;durP1;ratioP1;P2;durP2;ratioP2
6280;SDS011;3173;48.204;11.612;2023-02-28T00:00:07;3.72;;;2.40;;
6280;SDS011;3173;48.204;11.612;2023-02-28T00:02:36;4.82;;;2.55;;
6280;SDS011;3173;48.204;11.612;2023-02-28T00:05:02;4.30;;;2.50;;
6280;SDS011;3173;48.204;11.612;2023-02-28T00:07:29;2.95;;;2.20;;
6280;SDS011;3173;48.204;11.612;2023-02-28T00:09:55;2.85;;;1.90;;
6280;SDS011;3173;48.204;11.612;2023-02-28T00:12:21;3.47;;;2.20;;
6280;SDS011;3173;48.204;11.612;2023-02-28T00:14:47;5.03;;;2.70;;
6280;SDS011;3173;48.204;11.612;2023-02-28T00:17:13;5.30;;;3.00;;
6280;SDS011;3173;48.204;11.612;2023-02-28T00:19:39;3.03;;;2.42;;
6280;SDS011;3173;48.204;11.612;2023-02-28T00:22:05;7.43;;;2.87;;
6280;SDS011;3173;48.204;11.612;2023-02-28T00:24:31;4.60;;;2.80;;
6280;SDS011;3173;48.204;11.612;2023-02-28T00:26:58;6.65;;;3.38;;
6280;SDS011;3173;48.204;11.612;2023-02-28T00:29:24;4.75;;;2.92;;
6280;SDS011;3173;48.204;11.612;2023-02-28T00:31:50;3.95;;;2.50;;
6280;SDS011;3173;48.204;11.612;2023-02-28T00:34:16;4.63;;;2.92;;
6280;SDS011;3173;48.204;11.612;2023-02-28T00:36:42;5.72;;;2.80;;
6280;SDS011;3173;48.204;11.612;2023-02-28T00:39:11;2.88;;;2.42;;
6280;SDS011;3173;48.204;11.612;2023-02-28T00:41:37;7.97;;;3.30;;
6280;SDS011;3173;48.204;11.612;2023-02-28T00:44:03;3.10;;;2.33;;
6280;SDS011;3173;48.204;11.612;2023-02-28T00:46:29;12.75;;;4.40;;
6280;SDS011;3173;48.204;11.612;2023-02-28T00:48:55;6.07;;;3.22;;
6280;SDS011;3173;48.204;11.612;2023-02-28T00:51:22;5.20;;;2.97;;
6280;SDS011;3173;48.204;11.612;2023-02-28T00:53:48;8.90;;;3.10;;
6280;SDS011;3173;48.204;11.612;2023-02-28T00:56:14;7.47;;;2.40;;
6280;SDS011;3173;48.204;11.612;2023-02-28T00:58:40;7.65;;;3.38;;
6280;SDS011;3173;48.204;11.612;2023-02-28T01:01:06;2.90;;;2.30;;
6280;SDS011;3173;48.204;11.612;2023-02-28T01:03:32;8.13;;;3.50;;
6280;SDS011;3173;48.204;11.612;2023-02-28T01:05:58;7.88;;;3.42;;
6280;SDS011;3173;48.204;11.612;2023-02-28T01:08:24;4.90;;;2.90;;
6280;SDS011;3173;48.204;11.612;2023-02-28T01:10:51;8.57;;;3.13;;
6280;SDS011;3173;48.204;11.612;2023-02-28T01:13:18;5.85;;;3.35;;
6280;SDS011;3173;48.204;11.612;2023-02-28T01:15:51;5.90;;;3.22;;
6280;SDS011;3173;48.204;11.612;2023-02-28T01:18:18;4.07;;;2.42;;
6280;SDS011;3173;48.204;11.612;2023-02-28T01:20:44;5.40;;;2.80;;
6280;SDS011;3173;48.204;11.612;2023-02-28T01:23:11;5.10;;;2.25;;
6280;SDS011;3173;48.204;11.612;2023-02-28T01:25:37;3.45;;;2.50;;
6280;SDS011;3173;48.204;11.612;2023-02-28T01:28:04;5.15;;;2.78;;
6280;SDS011;3173;48.204;11.612;2023-02-28T01:30:30;9.75;;;3.55;;
6280;SDS011;3173;48.204;11.612;2023-02-28T01:32:57;41.03;;;10.85;;
6280;SDS011;3173;48.204;11.612;2023-02-28T01:35:23;21.00;;;6.70;;
6280;SDS011;3173;48.204;11.612;2023-02-28T01:37:49;5.30;;;3.00;;
6280;SDS011;3173;48.204;11.612;2023-02-28T01:40:15;6.25;;;3.00;;
6280;SDS011;3173;48.204;11.612;2023-02-28T01:42:41;4.07;;;2.78;;
6280;SDS011;3173;48.204;11.612;2023-02-28T01:45:16;2.90;;;2.30;;
6280;SDS011;3173;48.204;11.612;2023-02-28T01:47:44;4.47;;;2.30;;
6280;SDS011;3173;48.204;11.612;2023-02-28T01:50:12;6.65;;;2.97;;
6280;SDS011;3173;48.204;11.612;2023-02-28T01:52:39;3.42;;;2.30;;
6280;SDS011;3173;48.204;11.612;2023-02-28T01:55:06;4.28;;;2.47;;
6280;SDS011;3173;48.204;11.612;2023-02-28T01:57:33;6.47;;;3.05;;
6280;SDS011;3173;48.204;11.612;2023-02-28T02:02:33;5.82;;;3.08;;
6280;SDS011;3173;48.204;11.612;2023-02-28T02:05:03;5.80;;;2.55;;
6280;SDS011;3173;48.204;11.612;2023-02-28T02:07:30;4.00;;;2.65;;
6280;SDS011;3173;48.204;11.612;2023-02-28T02:17:36;3.80;;;2.90;;
6280;SDS011;3173;48.204;11.612;2023-02-28T02:25:47;4.72;;;2.40;;
6280;SDS011;3173;48.204;11.612;2023-02-28T02:42:00;3.88;;;2.83;;
6280;SDS011;3173;48.204;11.612;2023-02-28T02:47:00;4.28;;;2.90;;
6280;SDS011;3173;48.204;11.612;2023-02-28T02:49:30;5.70;;;3.35;;
6280;SDS011;3173;48.204;11.612;2023-02-28T02:51:57;5.85;;;3.35;;
6280;SDS011;3173;48.204;11.612;2023-02-28T02:54:27;6.47;;;3.80;;
6280;SDS011;3173;48.204;11.612;2023-02-28T02:56:55;5.85;;;3.20;;
6280;SDS011;3173;48.204;11.612;2023-02-28T02:59:22;4.90;;;3.30;;
6280;SDS011;3173;48.204;11.612;2023-02-28T03:01:51;4.50;;;3.00;;
6280;SDS011;3173;48.204;11.612;2023-02-28T03:04:21;5.53;;;3.03;;
6280;SDS011;3173;48.204;11.612;2023-02-28T03:06:48;5.20;;;3.10;;
6280;SDS011;3173;48.204;11.612;2023-02-28T03:09:19;3.78;;;2.63;;
6280;SDS011;3173;48.204;11.612;2023-02-28T03:11:45;4.47;;;3.00;;
6280;SDS011;3173;48.204;11.612;2023-02-28T03:22:23;4.65;;;3.40;;
6280;SDS011;3173;48.204;11.612;2023-02-28T03:27:23;5.50;;;3.58;;
6280;SDS011;3173;48.204;11.612;2023-02-28T03:29:51;5.40;;;3.42;;
6280;SDS011;3173;48.204;11.612;2023-02-28T03:32:24;5.70;;;3.70;;
6280;SDS011;3173;48.204;11.612;2023-02-28T03:35:00;4.55;;;3.10;;
6280;SDS011;3173;48.204;11.612;2023-02-28T03:37:31;5.55;;;3.63;;
6280;SDS011;3173;48.204;11.612;2023-02-28T03:40:08;5.38;;;3.42;;
6280;SDS011;3173;48.204;11.612;2023-02-28T03:42:38;7.25;;;4.20;;
6280;SDS011;3173;48.204;11.612;2023-02-28T03:45:08;6.38;;;4.03;;
6280;SDS011;3173;48.204;11.612;2023-02-28T03:50:07;6.88;;;3.90;;
6280;SDS011;3173;48.204;11.612;2023-02-28T03:52:35;5.90;;;3.10;;
6280;SDS011;3173;48.204;11.612;2023-02-28T03:55:05;9.48;;;3.90;;
6280;SDS011;3173;48.204;11.612;2023-02-28T04:00:08;7.10;;;4.30;;
6280;SDS011;3173;48.204;11.612;2023-02-28T04:02:36;7.50;;;3.90;;
6280;SDS011;3173;48.204;11.612;2023-02-28T04:05:02;7.03;;;3.85;;
6280;SDS011;3173;48.204;11.612;2023-02-28T04:07:31;10.27;;;4.57;;
6280;SDS011;3173;48.204;11.612;2023-02-28T04:09:57;6.30;;;4.57;;
6280;SDS011;3173;48.204;11.612;2023-02-28T04:12:23;8.80;;;4.07;;
6280;SDS011;3173;48.204;11.612;2023-02-28T04:14:50;6.30;;;3.75;;
6280;SDS011;3173;48.204;11.612;2023-02-28T04:17:16;8.45;;;4.10;;
6280;SDS011;3173;48.204;11.612;2023-02-28T04:19:43;7.70;;;4.20;;
6280;SDS011;3173;48.204;11.612;2023-02-28T04:22:09;8.05;;;4.10;;
6280;SDS011;3173;48.204;11.612;2023-02-28T04:24:35;6.75;;;4.30;;
6280;SDS011;3173;48.204;11.612;2023-02-28T04:27:02;8.15;;;4.38;;
6280;SDS011;3173;48.204;11.612;2023-02-28T04:29:29;7.20;;;4.05;;
6280;SDS011;3173;48.204;11.612;2023-02-28T04:31:57;9.07;;;4.50;;
6280;SDS011;3173;48.204;11.612;2023-02-28T04:34:23;7.47;;;4.65;;
6280;SDS011;3173;48.204;11.612;2023-02-28T04:36:50;10.85;;;4.10;;
6280;SDS011;3173;48.204;11.612;2023-02-28T04:39:18;10.52;;;5.28;;
6280;SDS011;3173;48.204;11.612;2023-02-28T04:41:45;6.63;;;4.60;;
6280;SDS011;3173;48.204;11.612;2023-02-28T04:44:11;8.02;;;4.05;;
6280;SDS011;3173;48.204;11.612;2023-02-28T04:46:37;7.30;;;4.80;;
6280;SDS011;3173;48.204;11.612;2023-02-28T04:49:03;8.80;;;4.65;;
6280;SDS011;3173;48.204;11.612;2023-02-28T04:51:30;9.65;;;5.25;;
6280;SDS011;3173;48.204;11.612;2023-02-28T04:53:56;7.78;;;4.80;;
6280;SDS011;3173;48.204;11.612;2023-02-28T04:56:22;7.65;;;4.65;;
6280;SDS011;3173;48.204;11.612;2023-02-28T04:58:48;9.43;;;5.72;;
6280;SDS011;3173;48.204;11.612;2023-02-28T05:01:19;11.20;;;4.97;;
6280;SDS011;3173;48.204;11.612;2023-02-28T05:03:45;7.45;;;4.80;;
6280;SDS011;3173;48.204;11.612;2023-02-28T05:06:12;8.30;;;5.13;;
6280;SDS011;3173;48.204;11.612;2023-02-28T05:08:38;8.13;;;4.90;;
6280;SDS011;3173;48.204;11.612;2023-02-28T05:11:06;7.40;;;5.00;;
6280;SDS011;3173;48.204;11.612;2023-02-28T05:13:33;13.07;;;4.82;;
6280;SDS011;3173;48.204;11.612;2023-02-28T05:16:00;8.80;;;5.10;;
6280;SDS011;3173;48.204;11.612;2023-02-28T05:18:26;7.60;;;5.38;;
6280;SDS011;3173;48.204;11.612;2023-02-28T05:20:53;10.60;;;5.60;;
6280;SDS011;3173;48.204;11.612;2023-02-28T05:23:19;7.95;;;5.30;;
6280;SDS011;3173;48.204;11.612;2023-02-28T05:25:46;8.95;;;5.00;;
6280;SDS011;3173;48.204;11.612;2023-02-28T05:28:12;8.82;;;5.07;;
6280;SDS011;3173;48.204;11.612;2023-02-28T05:30:39;8.52;;;5.75;;
6280;SDS011;3173;48.204;11.612;2023-02-28T05:33:05;8.40;;;5.10;;
6280;SDS011;3173;48.204;11.612;2023-02-28T05:35:31;8.40;;;6.28;;
6280;SDS011;3173;48.204;11.612;2023-02-28T05:37:57;8.52;;;5.28;;
6280;SDS011;3173;48.204;11.612;2023-02-28T05:40:24;9.23;;;5.43;;
6280;SDS011;3173;48.204;11.612;2023-02-28T05:42:50;11.02;;;5.95;;
6280;SDS011;3173;48.204;11.612;2023-02-28T05:45:16;11.65;;;6.18;;
6280;SDS011;3173;48.204;11.612;2023-02-28T05:47:42;8.75;;;5.57;;
6280;SDS011;3173;48.204;11.612;2023-02-28T05:50:09;13.60;;;6.03;;
6280;SDS011;3173;48.204;11.612;2023-02-28T05:52:35;11.95;;;6.63;;
6280;SDS011;3173;48.204;11.612;2023-02-28T05:55:02;8.30;;;5.50;;
6280;SDS011;3173;48.204;11.612;2023-02-28T05:57:28;9.25;;;6.05;;
6280;SDS011;3173;48.204;11.612;2023-02-28T05:59:54;11.18;;;6.45;;
6280;SDS011;3173;48.204;11.612;2023-02-28T06:02:20;9.10;;;6.20;;
6280;SDS011;3173;48.204;11.612;2023-02-28T06:04:47;13.20;;;6.50;;
6280;SDS011;3173;48.204;11.612;2023-02-28T06:07:13;9.68;;;6.05;;
6280;SDS011;3173;48.204;11.612;2023-02-28T06:09:40;14.20;;;6.20;;
6280;SDS011;3173;48.204;11.612;2023-02-28T06:12:06;11.05;;;5.90;;
6280;SDS011;3173;48.204;11.612;2023-02-28T06:14:35;11.07;;;6.40;;
6280;SDS011;3173;48.204;11.612;2023-02-28T06:17:01;12.02;;;6.60;;
6280;SDS011;3173;48.204;11.612;2023-02-28T06:19:27;8.98;;;5.30;;
6280;SDS011;3173;48.204;11.612;2023-02-28T06:21:55;9.68;;;6.25;;
6280;SDS011;3173;48.204;11.612;2023-02-28T06:24:22;12.10;;;6.90;;
6280;SDS011;3173;48.204;11.612;2023-02-28T06:26:49;12.45;;;7.22;;
6280;SDS011;3173;48.204;11.612;2023-02-28T06:29:15;10.52;;;6.95;;
6280;SDS011;3173;48.204;11.612;2023-02-28T06:31:46;9.95;;;6.70;;
6280;SDS011;3173;48.204;11.612;2023-02-28T06:34:12;10.23;;;5.80;;
6280;SDS011;3173;48.204;11.612;2023-02-28T06:36:39;11.35;;;6.43;;
6280;SDS011;3173;48.204;11.612;2023-02-28T06:39:06;11.13;;;6.80;;
6280;SDS011;3173;48.204;11.612;2023-02-28T06:41:32;12.30;;;6.95;;
6280;SDS011;3173;48.204;11.612;2023-02-28T06:44:03;9.80;;;6.38;;
6280;SDS011;3173;48.204;11.612;2023-02-28T06:46:31;12.52;;;7.30;;
6280;SDS011;3173;48.204;11.612;2023-02-28T06:48:57;19.35;;;7.63;;
6280;SDS011;3173;48.204;11.612;2023-02-28T06:51:23;12.50;;;6.47;;
6280;SDS011;3173;48.204;11.612;2023-02-28T06:53:50;13.52;;;7.57;;
6280;SDS011;3173;48.204;11.612;2023-02-28T06:56:18;13.23;;;6.80;;
6280;SDS011;3173;48.204;11.612;2023-02-28T06:58:46;14.07;;;8.18;;
6280;SDS011;3173;48.204;11.612;2023-02-28T07:01:13;14.90;;;7.53;;
6280;SDS011;3173;48.204;11.612;2023-02-28T07:03:39;11.10;;;6.55;;
6280;SDS011;3173;48.204;11.612;2023-02-28T07:06:06;16.00;;;9.98;;
6280;SDS011;3173;48.204;11.612;2023-02-28T07:08:33;14.48;;;8.32;;
6280;SDS011;3173;48.204;11.612;2023-02-28T07:10:59;16.65;;;7.65;;
6280;SDS011;3173;48.204;11.612;2023-02-28T07:13:25;13.13;;;7.88;;
6280;SDS011;3173;48.204;11.612;2023-02-28T07:18:21;16.58;;;7.68;;
6280;SDS011;3173;48.204;11.612;2023-02-28T07:20:47;12.07;;;7.55;;
6280;SDS011;3173;48.204;11.612;2023-02-28T07:23:13;14.45;;;8.05;;
6280;SDS011;3173;48.204;11.612;2023-02-28T07:25:39;10.50;;;7.68;;
6280;SDS011;3173;48.204;11.612;2023-02-28T07:28:05;12.23;;;7.47;;
6280;SDS011;3173;48.204;11.612;2023-02-28T07:30:32;15.73;;;9.48;;
6280;SDS011;3173;48.204;11.612;2023-02-28T07:32:58;17.55;;;8.73;;
6280;SDS011;3173;48.204;11.612;2023-02-28T07:35:24;13.80;;;9.73;;
6280;SDS011;3173;48.204;11.612;2023-02-28T07:37:50;15.70;;;8.48;;
6280;SDS011;3173;48.204;11.612;2023-02-28T07:40:16;14.50;;;9.00;;
6280;SDS011;3173;48.204;11.612;2023-02-28T07:42:43;15.48;;;8.80;;
6280;SDS011;3173;48.204;11.612;2023-02-28T07:45:09;21.08;;;9.20;;
6280;SDS011;3173;48.204;11.612;2023-02-28T07:47:37;16.48;;;8.32;;
6280;SDS011;3173;48.204;11.612;2023-02-28T07:50:03;16.85;;;9.60;;
6280;SDS011;3173;48.204;11.612;2023-02-28T07:52:29;19.17;;;9.40;;
6280;SDS011;3173;48.204;11.612;2023-02-28T07:54:56;17.15;;;9.10;;
6280;SDS011;3173;48.204;11.612;2023-02-28T07:57:22;14.38;;;8.82;;
6280;SDS011;3173;48.204;11.612;2023-02-28T07:59:48;28.83;;;10.10;;
6280;SDS011;3173;48.204;11.612;2023-02-28T08:02:14;14.73;;;9.23;;
6280;SDS011;3173;48.204;11.612;2023-02-28T08:04:40;16.50;;;8.85;;
6280;SDS011;3173;48.204;11.612;2023-02-28T08:07:07;17.63;;;8.88;;
6280;SDS011;3173;48.204;11.612;2023-02-28T08:09:33;14.57;;;9.13;;
6280;SDS011;3173;48.204;11.612;2023-02-28T08:11:59;15.48;;;9.00;;
6280;SDS011;3173;48.204;11.612;2023-02-28T08:14:25;14.02;;;8.82;;
6280;SDS011;3173;48.204;11.612;2023-02-28T08:16:51;17.80;;;9.18;;
6280;SDS011;3173;48.204;11.612;2023-02-28T08:19:17;16.27;;;9.35;;
6280;SDS011;3173;48.204;11.612;2023-02-28T08:21:43;13.10;;;8.27;;
6280;SDS011;3173;48.204;11.612;2023-02-28T08:24:10;12.35;;;7.85;;
6280;SDS011;3173;48.204;11.612;2023-02-28T08:26:36;14.88;;;9.30;;
6280;SDS011;3173;48.204;11.612;2023-02-28T08:29:02;15.73;;;9.43;;
6280;SDS011;3173;48.204;11.612;2023-02-28T08:31:28;16.38;;;9.18;;
6280;SDS011;3173;48.204;11.612;2023-02-28T08:33:54;16.15;;;9.93;;
6280;SDS011;3173;48.204;11.612;2023-02-28T08:36:23;19.95;;;9.45;;
6280;SDS011;3173;48.204;11.612;2023-02-28T08:38:50;15.68;;;9.40;;
6280;SDS011;3173;48.204;11.612;2023-02-28T08:41:16;15.70;;;9.60;;
6280;SDS011;3173;48.204;11.612;2023-02-28T08:43:42;13.45;;;8.73;;
6280;SDS011;3173;48.204;11.612;2023-02-28T08:46:10;16.17;;;9.18;;
6280;SDS011;3173;48.204;11.612;2023-02-28T08:48:36;14.00;;;8.60;;
6280;SDS011;3173;48.204;11.612;2023-02-28T08:51:04;16.37;;;8.83;;
6280;SDS011;3173;48.204;11.612;2023-02-28T08:53:32;16.60;;;9.13;;
6280;SDS011;3173;48.204;11.612;2023-02-28T08:55:59;16.67;;;10.18;;
6280;SDS011;3173;48.204;11.612;2023-02-28T08:58:25;15.88;;;8.75;;
6280;SDS011;3173;48.204;11.612;2023-02-28T09:00:52;15.40;;;8.68;;
6280;SDS011;3173;48.204;11.612;2023-02-28T09:03:18;15.23;;;8.45;;
6280;SDS011;3173;48.204;11.612;2023-02-28T09:06:00;18.17;;;10.10;;
6280;SDS011;3173;48.204;11.612;2023-02-28T09:08:29;18.20;;;9.75;;
6280;SDS011;3173;48.204;11.612;2023-02-28T09:10:55;15.50;;;9.23;;
6280;SDS011;3173;48.204;11.612;2023-02-28T09:13:23;20.60;;;10.02;;
6280;SDS011;3173;48.204;11.612;2023-02-28T09:15:49;17.50;;;9.27;;
6280;SDS011;3173;48.204;11.612;2023-02-28T09:18:15;20.15;;;9.60;;
6280;SDS011;3173;48.204;11.612;2023-02-28T09:20:42;14.48;;;9.35;;
6280;SDS011;3173;48.204;11.612;2023-02-28T09:23:09;17.55;;;8.80;;
6280;SDS011;3173;48.204;11.612;2023-02-28T09:25:36;17.02;;;9.45;;
6280;SDS011;3173;48.204;11.612;2023-02-28T09:28:02;17.80;;;9.82;;
6280;SDS011;3173;48.204;11.612;2023-02-28T09:30:28;13.25;;;8.40;;
6280;SDS011;3173;48.204;11.612;2023-02-28T09:32:55;14.20;;;9.27;;
6280;SDS011;3173;48.204;11.612;2023-02-28T09:35:21;15.20;;;9.57;;
6280;SDS011;3173;48.204;11.612;2023-02-28T09:37:51;13.40;;;9.65;;
6280;SDS011;3173;48.204;11.612;2023-02-28T09:40:18;16.30;;;9.63;;
6280;SDS011;3173;48.204;11.612;2023-02-28T09:42:45;17.08;;;9.10;;
6280;SDS011;3173;48.204;11.612;2023-02-28T09:47:50;17.33;;;9.98;;
6280;SDS011;3173;48.204;11.612;2023-02-28T09:52:54;16.08;;;8.98;;
6280;SDS011;3173;48.204;11.612;2023-02-28T09:55:22;15.73;;;9.95;;
6280;SDS011;3173;48.204;11.612;2023-02-28T09:57:50;13.23;;;8.38;;
6280;SDS011;3173;48.204;11.612;2023-02-28T10:05:13;13.83;;;9.30;;
6280;SDS011;3173;48.204;11.612;2023-02-28T10:12:44;13.40;;;8.53;;
6280;SDS011;3173;48.204;11.612;2023-02-28T10:15:14;16.83;;;10.17;;
6280;SDS011;3173;48.204;11.612;2023-02-28T10:17:41;14.40;;;8.93;;
6280;SDS011;3173;48.204;11.612;2023-02-28T10:20:12;13.17;;;8.97;;
6280;SDS011;3173;48.204;11.612;2023-02-28T10:25:16;14.37;;;9.50;;
6280;SDS011;3173;48.204;11.612;2023-02-28T10:27:43;14.90;;;9.37;;
6280;SDS011;3173;48.204;11.612;2023-02-28T10:30:10;14.23;;;9.00;;
6280;SDS011;3173;48.204;11.612;2023-02-28T10:32:37;13.97;;;8.70;;
6280;SDS011;3173;48.204;11.612;2023-02-28T10:37:33;14.37;;;9.17;;
6280;SDS011;3173;48.204;11.612;2023-02-28T10:40:03;16.30;;;9.37;;
6280;SDS011;3173;48.204;11.612;2023-02-28T10:42:31;18.27;;;10.63;;
6280;SDS011;3173;48.204;11.612;2023-02-28T10:45:10;15.03;;;8.50;;
6280;SDS011;3173;48.204;11.612;2023-02-28T10:47:40;12.73;;;8.50;;
6280;SDS011;3173;48.204;11.612;2023-02-28T10:50:25;13.13;;;9.00;;
6280;SDS011;3173;48.204;11.612;2023-02-28T10:52:52;14.10;;;9.20;;
6280;SDS011;3173;48.204;11.612;2023-02-28T10:55:23;14.90;;;9.30;;
6280;SDS011;3173;48.204;11.612;2023-02-28T10:57:50;13.20;;;9.00;;
6280;SDS011;3173;48.204;11.612;2023-02-28T11:00:18;13.37;;;9.23;;
6280;SDS011;3173;48.204;11.612;2023-02-28T11:02:44;14.50;;;9.30;;
6280;SDS011;3173;48.204;11.612;2023-02-28T11:10:32;16.03;;;9.50;;
6280;SDS011;3173;48.204;11.612;2023-02-28T11:12:59;14.00;;;9.57;;
6280;SDS011;3173;48.204;11.612;2023-02-28T11:15:27;13.63;;;9.67;;
6280;SDS011;3173;48.204;11.612;2023-02-28T11:18:54;13.43;;;9.60;;
6280;SDS011;3173;48.204;11.612;2023-02-28T11:20:49;12.77;;;8.83;;
6280;SDS011;3173;48.204;11.612;2023-02-28T11:23:16;12.37;;;9.60;;
6280;SDS011;3173;48.204;11.612;2023-02-28T11:25:47;13.50;;;9.37;;
6280;SDS011;3173;48.204;11.612;2023-02-28T11:28:26;10.70;;;8.60;;
6280;SDS011;3173;48.204;11.612;2023-02-28T11:35:55;12.17;;;8.97;;
6280;SDS011;3173;48.204;11.612;2023-02-28T11:38:25;15.53;;;9.83;;
6280;SDS011;3173;48.204;11.612;2023-02-28T11:43:21;13.27;;;8.93;;
6280;SDS011;3173;48.204;11.612;2023-02-28T11:51:21;12.50;;;9.10;;
6280;SDS011;3173;48.204;11.612;2023-02-28T11:54:05;15.27;;;9.60;;
6280;SDS011;3173;48.204;11.612;2023-02-28T12:01:42;13.07;;;8.80;;
6280;SDS011;3173;48.204;11.612;2023-02-28T12:04:15;13.10;;;8.80;;
6280;SDS011;3173;48.204;11.612;2023-02-28T12:11:55;11.90;;;8.83;;
6280;SDS011;3173;48.204;11.612;2023-02-28T12:27:22;15.20;;;9.03;;
6280;SDS011;3173;48.204;11.612;2023-02-28T12:29:53;12.87;;;9.13;;
6280;SDS011;3173;48.204;11.612;2023-02-28T12:32:36;12.03;;;7.80;;
6280;SDS011;3173;48.204;11.612;2023-02-28T12:37:31;10.50;;;8.53;;
6280;SDS011;3173;48.204;11.612;2023-02-28T12:40:00;12.70;;;8.70;;
6280;SDS011;3173;48.204;11.612;2023-02-28T12:42:31;13.37;;;8.20;;
6280;SDS011;3173;48.204;11.612;2023-02-28T12:45:02;11.30;;;8.00;;
6280;SDS011;3173;48.204;11.612;2023-02-28T12:47:32;9.90;;;7.83;;
6280;SDS011;3173;48.204;11.612;2023-02-28T12:49:59;12.10;;;8.00;;
6280;SDS011;3173;48.204;11.612;2023-02-28T12:52:37;10.63;;;8.20;;
6280;SDS011;3173;48.204;11.612;2023-02-28T13:00:00;12.23;;;8.17;;
6280;SDS011;3173;48.204;11.612;2023-02-28T13:07:36;12.30;;;8.80;;
6280;SDS011;3173;48.204;11.612;2023-02-28T13:10:05;9.43;;;8.20;;
6280;SDS011;3173;48.204;11.612;2023-02-28T13:12:32;11.70;;;8.50;;
6280;SDS011;3173;48.204;11.612;2023-02-28T13:15:12;12.97;;;7.70;;
6280;SDS011;3173;48.204;11.612;2023-02-28T13:17:44;9.87;;;8.00;;
6280;SDS011;3173;48.204;11.612;2023-02-28T13:20:18;17.93;;;8.00;;
6280;SDS011;3173;48.204;11.612;2023-02-28T13:22:45;11.13;;;8.57;;
6280;SDS011;3173;48.204;11.612;2023-02-28T13:27:56;12.40;;;8.53;;
6280;SDS011;3173;48.204;11.612;2023-02-28T13:33:29;12.33;;;8.63;;
6280;SDS011;3173;48.204;11.612;2023-02-28T13:38:41;12.30;;;8.60;;
6280;SDS011;3173;48.204;11.612;2023-02-28T13:44:10;14.27;;;7.83;;
6280;SDS011;3173;48.204;11.612;2023-02-28T13:47:13;19.70;;;12.63;;
6280;SDS011;3173;48.204;11.612;2023-02-28T13:59:32;15.50;;;9.10;;
6280;SDS011;3173;48.204;11.612;2023-02-28T14:02:03;11.30;;;7.63;;
6280;SDS011;3173;48.204;11.612;2023-02-28T14:07:03;12.63;;;8.70;;
6280;SDS011;3173;48.204;11.612;2023-02-28T14:09:34;13.00;;;8.70;;
6280;SDS011;3173;48.204;11.612;2023-02-28T14:14:53;11.90;;;8.60;;
6280;SDS011;3173;48.204;11.612;2023-02-28T14:17:19;13.50;;;8.73;;
6280;SDS011;3173;48.204;11.612;2023-02-28T14:19:46;15.90;;;8.50;;
6280;SDS011;3173;48.204;11.612;2023-02-28T14:43:54;13.00;;;7.90;;
6280;SDS011;3173;48.204;11.612;2023-02-28T14:46:22;10.90;;;7.47;;
6280;SDS011;3173;48.204;11.612;2023-02-28T14:48:49;15.10;;;7.90;;
6280;SDS011;3173;48.204;11.612;2023-02-28T14:51:20;12.37;;;7.77;;
6280;SDS011;3173;48.204;11.612;2023-02-28T14:53:57;12.07;;;7.70;;
6280;SDS011;3173;48.204;11.612;2023-02-28T14:56:34;11.57;;;7.87;;
6280;SDS011;3173;48.204;11.612;2023-02-28T14:59:01;11.77;;;7.60;;
6280;SDS011;3173;48.204;11.612;2023-02-28T15:01:27;13.10;;;8.40;;
6280;SDS011;3173;48.204;11.612;2023-02-28T15:03:56;18.00;;;8.17;;
6280;SDS011;3173;48.204;11.612;2023-02-28T15:06:23;12.43;;;8.30;;
6280;SDS011;3173;48.204;11.612;2023-02-28T15:09:06;11.23;;;8.10;;
6280;SDS011;3173;48.204;11.612;2023-02-28T15:11:33;13.27;;;8.00;;
6280;SDS011;3173;48.204;11.612;2023-02-28T15:13:59;16.13;;;7.97;;
6280;SDS011;3173;48.204;11.612;2023-02-28T15:16:30;10.70;;;7.73;;
6280;SDS011;3173;48.204;11.612;2023-02-28T15:18:58;13.70;;;8.47;;
6280;SDS011;3173;48.204;11.612;2023-02-28T15:21:27;12.10;;;7.83;;
6280;SDS011;3173;48.204;11.612;2023-02-28T15:26:41;15.57;;;8.17;;
6280;SDS011;3173;48.204;11.612;2023-02-28T15:29:11;12.90;;;8.57;;
6280;SDS011;3173;48.204;11.612;2023-02-28T15:31:45;13.70;;;8.30;;
6280;SDS011;3173;48.204;11.612;2023-02-28T15:34:21;12.03;;;8.80;;
6280;SDS011;3173;48.204;11.612;2023-02-28T15:36:47;14.00;;;7.90;;
6280;SDS011;3173;48.204;11.612;2023-02-28T15:39:32;13.17;;;8.17;;
6280;SDS011;3173;48.204;11.612;2023-02-28T15:42:09;14.00;;;9.07;;
6280;SDS011;3173;48.204;11.612;2023-02-28T15:44:36;12.17;;;8.27;;
6280;SDS011;3173;48.204;11.612;2023-02-28T15:47:03;12.27;;;8.80;;
6280;SDS011;3173;48.204;11.612;2023-02-28T15:49:39;15.73;;;8.63;;
6280;SDS011;3173;48.204;11.612;2023-02-28T15:52:05;14.13;;;9.00;;
6280;SDS011;3173;48.204;11.612;2023-02-28T15:54:33;12.97;;;8.67;;
6280;SDS011;3173;48.204;11.612;2023-02-28T15:57:05;15.40;;;8.63;;
6280;SDS011;3173;48.204;11.612;2023-02-28T15:59:33;16.03;;;8.40;;
6280;SDS011;3173;48.204;11.612;2023-02-28T16:04:36;14.10;;;8.50;;
6280;SDS011;3173;48.204;11.612;2023-02-28T16:07:06;14.13;;;8.40;;
6280;SDS011;3173;48.204;11.612;2023-02-28T16:09:32;13.97;;;9.23;;
6280;SDS011;3173;48.204;11.612;2023-02-28T16:12:01;15.77;;;7.80;;
6280;SDS011;3173;48.204;11.612;2023-02-28T16:14:28;13.20;;;8.40;;
6280;SDS011;3173;48.204;11.612;2023-02-28T16:17:03;13.67;;;8.50;;
6280;SDS011;3173;48.204;11.612;2023-02-28T16:19:31;18.20;;;8.10;;
6280;SDS011;3173;48.204;11.612;2023-02-28T16:21:57;15.33;;;9.17;;
6280;SDS011;3173;48.204;11.612;2023-02-28T16:24:23;16.30;;;9.67;;
6280;SDS011;3173;48.204;11.612;2023-02-28T16:26:50;20.83;;;9.30;;
6280;SDS011;3173;48.204;11.612;2023-02-28T16:29:27;14.23;;;8.60;;
6280;SDS011;3173;48.204;11.612;2023-02-28T16:31:54;12.97;;;7.67;;
6280;SDS011;3173;48.204;11.612;2023-02-28T16:34:20;16.60;;;7.50;;
6280;SDS011;3173;48.204;11.612;2023-02-28T16:36:47;14.53;;;8.47;;
6280;SDS011;3173;48.204;11.612;2023-02-28T16:39:13;12.83;;;8.23;;
6280;SDS011;3173;48.204;11.612;2023-02-28T16:41:43;14.57;;;8.43;;
6280;SDS011;3173;48.204;11.612;2023-02-28T16:44:14;13.50;;;8.90;;
6280;SDS011;3173;48.204;11.612;2023-02-28T16:46:44;11.77;;;7.80;;
6280;SDS011;3173;48.204;11.612;2023-02-28T16:49:11;12.57;;;8.07;;
6280;SDS011;3173;48.204;11.612;2023-02-28T16:51:38;18.50;;;8.77;;
6280;SDS011;3173;48.204;11.612;2023-02-28T16:54:04;12.03;;;7.83;;
6280;SDS011;3173;48.204;11.612;2023-02-28T16:56:30;17.30;;;8.67;;
6280;SDS011;3173;48.204;11.612;2023-02-28T16:58:58;13.33;;;8.00;;
6280;SDS011;3173;48.204;11.612;2023-02-28T17:01:25;13.40;;;8.53;;
6280;SDS011;3173;48.204;11.612;2023-02-28T17:03:52;16.47;;;9.73;;
6280;SDS011;3173;48.204;11.612;2023-02-28T17:06:19;12.30;;;7.70;;
6280;SDS011;3173;48.204;11.612;2023-02-28T17:08:47;14.57;;;8.50;;
6280;SDS011;3173;48.204;11.612;2023-02-28T17:11:13;14.23;;;8.83;;
6280;SDS011;3173;48.204;11.612;2023-02-28T17:13:39;13.07;;;8.20;;
6280;SDS011;3173;48.204;11.612;2023-02-28T17:16:07;19.73;;;8.57;;
6280;SDS011;3173;48.204;11.612;2023-02-28T17:18:35;14.27;;;8.90;;
6280;SDS011;3173;48.204;11.612;2023-02-28T17:21:01;18.93;;;9.70;;
6280;SDS011;3173;48.204;11.612;2023-02-28T17:23:27;14.63;;;8.60;;
6280;SDS011;3173;48.204;11.612;2023-02-28T17:25:53;18.20;;;9.30;;
6280;SDS011;3173;48.204;11.612;2023-02-28T17:28:20;16.10;;;9.80;;
6280;SDS011;3173;48.204;11.612;2023-02-28T17:30:47;17.00;;;9.80;;
6280;SDS011;3173;48.204;11.612;2023-02-28T17:33:13;19.27;;;11.33;;
6280;SDS011;3173;48.204;11.612;2023-02-28T17:35:39;18.40;;;10.53;;
6280;SDS011;3173;48.204;11.612;2023-02-28T17:38:12;16.27;;;9.33;;
6280;SDS011;3173;48.204;11.612;2023-02-28T17:40:39;24.10;;;11.70;;
6280;SDS011;3173;48.204;11.612;2023-02-28T17:43:06;17.13;;;9.77;;
6280;SDS011;3173;48.204;11.612;2023-02-28T17:45:32;20.33;;;10.83;;
6280;SDS011;3173;48.204;11.612;2023-02-28T17:48:00;19.50;;;11.27;;
6280;SDS011;3173;48.204;11.612;2023-02-28T17:50:26;18.80;;;10.20;;
6280;SDS011;3173;48.204;11.612;2023-02-28T17:52:53;16.00;;;9.10;;
6280;SDS011;3173;48.204;11.612;2023-02-28T17:55:19;15.87;;;8.90;;